sensor_id;sensor_type;location;lat;lon;timestamp;P1;durP1;ratioP1;P2;durP2;ratioP2
23088;SDS011;11713;48.506;8.966;2023-04-03T00:00:35;5.27;;;2.93;;
23088;SDS011;11713;48.506;8.966;2023-04-03T00:03:01;3.27;;;2.97;;
23088;SDS011;11713;48.506;8.966;2023-04-03T00:05:27;5.47;;;3.10;;
23088;SDS011;11713;48.506;8.966;2023-04-03T00:07:53;4.77;;;2.97;;
23088;SDS011;11713;48.506;8.966;2023-04-03T00:10:19;3.23;;;2.67;;
23088;SDS011;11713;48.506;8.966;2023-04-03T00:12:45;4.80;;;3.03;;
23088;SDS011;11713;48.506;8.966;2023-04-03T00:15:11;4.63;;;2.90;;
23088;SDS011;11713;48.506;8.966;2023-04-03T00:17:37;3.13;;;2.80;;
23088;SDS011;11713;48.506;8.966;2023-04-03T00:20:04;3.77;;;3.13;;
23088;SDS011;11713;48.506;8.966;2023-04-03T00:22:30;3.40;;;3.00;;
23088;SDS011;11713;48.506;8.966;2023-04-03T00:24:56;4.93;;;3.50;;
23088;SDS011;11713;48.506;8.966;2023-04-03T00:27:22;4.47;;;3.23;;
23088;SDS011;11713;48.506;8.966;2023-04-03T00:29:48;3.37;;;3.07;;
23088;SDS011;11713;48.506;8.966;2023-04-03T00:32:15;3.40;;;3.03;;
23088;SDS011;11713;48.506;8.966;2023-04-03T00:34:41;4.73;;;3.00;;
23088;SDS011;11713;48.506;8.966;2023-04-03T00:37:07;3.60;;;3.10;;
23088;SDS011;11713;48.506;8.966;2023-04-03T00:39:33;3.83;;;2.83;;
23088;SDS011;11713;48.506;8.966;2023-04-03T00:41:59;4.93;;;3.27;;
23088;SDS011;11713;48.506;8.966;2023-04-03T00:47:00;4.90;;;2.90;;
23088;SDS011;11713;48.506;8.966;2023-04-03T00:49:28;3.53;;;3.20;;
23088;SDS011;11713;48.506;8.966;2023-04-03T00:51:55;3.53;;;2.90;;
23088;SDS011;11713;48.506;8.966;2023-04-03T00:54:22;4.77;;;2.63;;
23088;SDS011;11713;48.506;8.966;2023-04-03T00:56:50;4.13;;;3.10;;
23088;SDS011;11713;48.506;8.966;2023-04-03T00:59:22;4.17;;;3.40;;
23088;SDS011;11713;48.506;8.966;2023-04-03T01:01:55;3.37;;;3.07;;
23088;SDS011;11713;48.506;8.966;2023-04-03T01:04:41;5.47;;;3.27;;
23088;SDS011;11713;48.506;8.966;2023-04-03T01:07:10;5.03;;;2.97;;
23088;SDS011;11713;48.506;8.966;2023-04-03T01:09:48;4.70;;;3.30;;
23088;SDS011;11713;48.506;8.966;2023-04-03T01:12:18;3.87;;;2.93;;
23088;SDS011;11713;48.506;8.966;2023-04-03T01:14:48;4.00;;;3.20;;
23088;SDS011;11713;48.506;8.966;2023-04-03T01:25:34;3.70;;;2.87;;
23088;SDS011;11713;48.506;8.966;2023-04-03T01:28:03;4.10;;;3.60;;
23088;SDS011;11713;48.506;8.966;2023-04-03T01:30:33;4.77;;;3.37;;
23088;SDS011;11713;48.506;8.966;2023-04-03T01:33:05;3.50;;;3.20;;
23088;SDS011;11713;48.506;8.966;2023-04-03T01:35:31;5.20;;;3.50;;
23088;SDS011;11713;48.506;8.966;2023-04-03T01:37:57;5.30;;;3.20;;
23088;SDS011;11713;48.506;8.966;2023-04-03T01:40:23;3.93;;;3.20;;
23088;SDS011;11713;48.506;8.966;2023-04-03T01:42:49;4.27;;;3.23;;
23088;SDS011;11713;48.506;8.966;2023-04-03T01:45:16;3.90;;;3.47;;
23088;SDS011;11713;48.506;8.966;2023-04-03T01:47:42;5.13;;;3.27;;
23088;SDS011;11713;48.506;8.966;2023-04-03T01:50:08;5.07;;;3.30;;
23088;SDS011;11713;48.506;8.966;2023-04-03T01:52:34;4.83;;;2.90;;
23088;SDS011;11713;48.506;8.966;2023-04-03T01:55:00;3.73;;;3.43;;
23088;SDS011;11713;48.506;8.966;2023-04-03T01:57:26;4.80;;;3.30;;
23088;SDS011;11713;48.506;8.966;2023-04-03T01:59:52;4.50;;;3.00;;
23088;SDS011;11713;48.506;8.966;2023-04-03T02:02:18;4.37;;;3.20;;
23088;SDS011;11713;48.506;8.966;2023-04-03T02:04:45;3.77;;;3.37;;
23088;SDS011;11713;48.506;8.966;2023-04-03T02:07:11;4.90;;;2.83;;
23088;SDS011;11713;48.506;8.966;2023-04-03T02:09:37;3.87;;;3.23;;
23088;SDS011;11713;48.506;8.966;2023-04-03T02:12:03;6.00;;;3.40;;
23088;SDS011;11713;48.506;8.966;2023-04-03T02:14:31;3.60;;;3.27;;
23088;SDS011;11713;48.506;8.966;2023-04-03T02:16:56;3.47;;;3.10;;
23088;SDS011;11713;48.506;8.966;2023-04-03T02:19:22;3.70;;;3.40;;
23088;SDS011;11713;48.506;8.966;2023-04-03T02:21:48;3.40;;;3.10;;
23088;SDS011;11713;48.506;8.966;2023-04-03T02:24:14;3.37;;;2.70;;
23088;SDS011;11713;48.506;8.966;2023-04-03T02:26:40;4.00;;;2.90;;
23088;SDS011;11713;48.506;8.966;2023-04-03T02:29:06;3.43;;;3.07;;
23088;SDS011;11713;48.506;8.966;2023-04-03T02:31:34;3.37;;;2.97;;
23088;SDS011;11713;48.506;8.966;2023-04-03T02:34:01;3.77;;;3.37;;
23088;SDS011;11713;48.506;8.966;2023-04-03T02:36:27;3.57;;;3.27;;
23088;SDS011;11713;48.506;8.966;2023-04-03T02:38:57;4.20;;;3.37;;
23088;SDS011;11713;48.506;8.966;2023-04-03T02:41:23;4.03;;;3.37;;
23088;SDS011;11713;48.506;8.966;2023-04-03T02:43:54;4.07;;;3.27;;
23088;SDS011;11713;48.506;8.966;2023-04-03T02:46:20;3.57;;;3.27;;
23088;SDS011;11713;48.506;8.966;2023-04-03T02:48:46;3.67;;;3.00;;
23088;SDS011;11713;48.506;8.966;2023-04-03T02:51:12;4.47;;;2.80;;
23088;SDS011;11713;48.506;8.966;2023-04-03T02:53:38;4.37;;;2.83;;
23088;SDS011;11713;48.506;8.966;2023-04-03T02:56:10;5.63;;;3.00;;
23088;SDS011;11713;48.506;8.966;2023-04-03T02:58:36;3.07;;;2.77;;
23088;SDS011;11713;48.506;8.966;2023-04-03T03:01:04;3.60;;;2.90;;
23088;SDS011;11713;48.506;8.966;2023-04-03T03:03:30;3.87;;;3.03;;
23088;SDS011;11713;48.506;8.966;2023-04-03T03:06:05;4.37;;;3.53;;
23088;SDS011;11713;48.506;8.966;2023-04-03T03:08:39;3.80;;;3.40;;
23088;SDS011;11713;48.506;8.966;2023-04-03T03:11:05;3.97;;;3.40;;
23088;SDS011;11713;48.506;8.966;2023-04-03T03:13:32;3.63;;;2.73;;
23088;SDS011;11713;48.506;8.966;2023-04-03T03:15:58;3.47;;;3.10;;
23088;SDS011;11713;48.506;8.966;2023-04-03T03:18:24;4.40;;;3.00;;
23088;SDS011;11713;48.506;8.966;2023-04-03T03:20:51;3.30;;;2.90;;
23088;SDS011;11713;48.506;8.966;2023-04-03T03:23:19;3.63;;;3.17;;
23088;SDS011;11713;48.506;8.966;2023-04-03T03:25:45;4.20;;;3.27;;
23088;SDS011;11713;48.506;8.966;2023-04-03T03:28:11;3.07;;;2.77;;
23088;SDS011;11713;48.506;8.966;2023-04-03T03:30:37;4.33;;;3.23;;
23088;SDS011;11713;48.506;8.966;2023-04-03T03:33:03;6.23;;;3.60;;
23088;SDS011;11713;48.506;8.966;2023-04-03T03:35:29;4.37;;;3.30;;
23088;SDS011;11713;48.506;8.966;2023-04-03T03:37:55;5.50;;;3.20;;
23088;SDS011;11713;48.506;8.966;2023-04-03T03:40:21;3.47;;;3.17;;
23088;SDS011;11713;48.506;8.966;2023-04-03T03:42:47;4.50;;;3.03;;
23088;SDS011;11713;48.506;8.966;2023-04-03T03:45:13;6.00;;;3.40;;
23088;SDS011;11713;48.506;8.966;2023-04-03T03:47:40;3.90;;;2.73;;
23088;SDS011;11713;48.506;8.966;2023-04-03T03:50:06;3.30;;;2.90;;
23088;SDS011;11713;48.506;8.966;2023-04-03T03:52:33;3.73;;;2.70;;
23088;SDS011;11713;48.506;8.966;2023-04-03T03:54:59;3.30;;;2.90;;
23088;SDS011;11713;48.506;8.966;2023-04-03T03:57:25;3.87;;;2.80;;
23088;SDS011;11713;48.506;8.966;2023-04-03T03:59:54;3.43;;;3.13;;
23088;SDS011;11713;48.506;8.966;2023-04-03T04:02:20;3.63;;;3.07;;
23088;SDS011;11713;48.506;8.966;2023-04-03T04:04:46;3.03;;;2.73;;
23088;SDS011;11713;48.506;8.966;2023-04-03T04:07:13;3.77;;;3.13;;
23088;SDS011;11713;48.506;8.966;2023-04-03T04:09:40;3.30;;;2.67;;
23088;SDS011;11713;48.506;8.966;2023-04-03T04:12:07;3.10;;;2.50;;
23088;SDS011;11713;48.506;8.966;2023-04-03T04:14:34;3.40;;;2.90;;
23088;SDS011;11713;48.506;8.966;2023-04-03T04:17:00;3.30;;;3.00;;
23088;SDS011;11713;48.506;8.966;2023-04-03T04:19:28;3.57;;;2.83;;
23088;SDS011;11713;48.506;8.966;2023-04-03T04:21:54;3.97;;;2.70;;
23088;SDS011;11713;48.506;8.966;2023-04-03T04:24:20;4.33;;;3.10;;
23088;SDS011;11713;48.506;8.966;2023-04-03T04:26:50;2.80;;;2.60;;
23088;SDS011;11713;48.506;8.966;2023-04-03T04:29:17;3.70;;;3.17;;
23088;SDS011;11713;48.506;8.966;2023-04-03T04:31:46;3.97;;;2.90;;
23088;SDS011;11713;48.506;8.966;2023-04-03T04:34:12;3.67;;;3.13;;
23088;SDS011;11713;48.506;8.966;2023-04-03T04:36:38;4.77;;;2.90;;
23088;SDS011;11713;48.506;8.966;2023-04-03T04:39:05;3.30;;;2.97;;
23088;SDS011;11713;48.506;8.966;2023-04-03T04:41:31;3.80;;;2.90;;
23088;SDS011;11713;48.506;8.966;2023-04-03T04:43:58;3.80;;;3.00;;
23088;SDS011;11713;48.506;8.966;2023-04-03T04:46:25;3.57;;;2.80;;
23088;SDS011;11713;48.506;8.966;2023-04-03T04:48:55;5.70;;;2.93;;
23088;SDS011;11713;48.506;8.966;2023-04-03T04:51:24;5.00;;;2.93;;
23088;SDS011;11713;48.506;8.966;2023-04-03T04:53:54;3.83;;;2.73;;
23088;SDS011;11713;48.506;8.966;2023-04-03T04:56:21;3.87;;;2.90;;
23088;SDS011;11713;48.506;8.966;2023-04-03T04:58:49;5.17;;;3.17;;
23088;SDS011;11713;48.506;8.966;2023-04-03T05:02:15;3.60;;;2.83;;
23088;SDS011;11713;48.506;8.966;2023-04-03T05:04:43;3.27;;;2.87;;
23088;SDS011;11713;48.506;8.966;2023-04-03T05:07:15;3.17;;;2.70;;
23088;SDS011;11713;48.506;8.966;2023-04-03T05:09:45;3.63;;;2.80;;
23088;SDS011;11713;48.506;8.966;2023-04-03T05:12:13;2.60;;;2.40;;
23088;SDS011;11713;48.506;8.966;2023-04-03T05:14:46;4.93;;;3.00;;
23088;SDS011;11713;48.506;8.966;2023-04-03T05:17:12;4.57;;;3.07;;
23088;SDS011;11713;48.506;8.966;2023-04-03T05:19:42;4.57;;;2.87;;
23088;SDS011;11713;48.506;8.966;2023-04-03T05:22:09;4.03;;;3.03;;
23088;SDS011;11713;48.506;8.966;2023-04-03T05:24:35;3.03;;;2.80;;
23088;SDS011;11713;48.506;8.966;2023-04-03T05:27:01;5.00;;;2.80;;
23088;SDS011;11713;48.506;8.966;2023-04-03T05:29:28;3.70;;;2.83;;
23088;SDS011;11713;48.506;8.966;2023-04-03T05:31:57;3.00;;;2.70;;
23088;SDS011;11713;48.506;8.966;2023-04-03T05:34:24;3.43;;;3.13;;
23088;SDS011;11713;48.506;8.966;2023-04-03T05:36:52;4.07;;;2.70;;
23088;SDS011;11713;48.506;8.966;2023-04-03T05:39:18;4.40;;;2.60;;
23088;SDS011;11713;48.506;8.966;2023-04-03T05:41:46;3.23;;;2.73;;
23088;SDS011;11713;48.506;8.966;2023-04-03T05:44:12;2.83;;;2.30;;
23088;SDS011;11713;48.506;8.966;2023-04-03T05:46:38;2.40;;;2.20;;
23088;SDS011;11713;48.506;8.966;2023-04-03T05:49:07;2.90;;;2.50;;
23088;SDS011;11713;48.506;8.966;2023-04-03T05:51:35;5.00;;;2.80;;
23088;SDS011;11713;48.506;8.966;2023-04-03T05:54:25;4.23;;;2.57;;
23088;SDS011;11713;48.506;8.966;2023-04-03T05:56:59;3.63;;;2.47;;
23088;SDS011;11713;48.506;8.966;2023-04-03T05:59:26;2.80;;;2.50;;
23088;SDS011;11713;48.506;8.966;2023-04-03T06:01:54;4.70;;;2.40;;
23088;SDS011;11713;48.506;8.966;2023-04-03T06:04:21;5.20;;;2.30;;
23088;SDS011;11713;48.506;8.966;2023-04-03T06:06:51;3.70;;;2.40;;
23088;SDS011;11713;48.506;8.966;2023-04-03T06:23:51;2.40;;;2.20;;
23088;SDS011;11713;48.506;8.966;2023-04-03T06:26:17;4.03;;;2.30;;
23088;SDS011;11713;48.506;8.966;2023-04-03T06:28:43;2.87;;;2.30;;
23088;SDS011;11713;48.506;8.966;2023-04-03T06:31:08;3.20;;;2.43;;
23088;SDS011;11713;48.506;8.966;2023-04-03T06:33:34;2.83;;;2.30;;
23088;SDS011;11713;48.506;8.966;2023-04-03T06:36:03;5.10;;;2.27;;
23088;SDS011;11713;48.506;8.966;2023-04-03T06:38:30;3.73;;;2.27;;
23088;SDS011;11713;48.506;8.966;2023-04-03T06:40:56;2.20;;;1.90;;
23088;SDS011;11713;48.506;8.966;2023-04-03T06:43:22;2.53;;;2.20;;
23088;SDS011;11713;48.506;8.966;2023-04-03T06:45:48;3.30;;;1.90;;
23088;SDS011;11713;48.506;8.966;2023-04-03T06:48:14;3.00;;;2.00;;
23088;SDS011;11713;48.506;8.966;2023-04-03T06:50:40;2.10;;;1.90;;
23088;SDS011;11713;48.506;8.966;2023-04-03T06:53:08;2.70;;;2.07;;
23088;SDS011;11713;48.506;8.966;2023-04-03T06:55:34;2.00;;;1.80;;
23088;SDS011;11713;48.506;8.966;2023-04-03T06:58:01;3.40;;;2.30;;
23088;SDS011;11713;48.506;8.966;2023-04-03T07:00:28;3.20;;;1.90;;
23088;SDS011;11713;48.506;8.966;2023-04-03T07:02:55;2.93;;;1.80;;
23088;SDS011;11713;48.506;8.966;2023-04-03T07:05:23;2.83;;;2.00;;
23088;SDS011;11713;48.506;8.966;2023-04-03T07:07:50;3.10;;;1.97;;
23088;SDS011;11713;48.506;8.966;2023-04-03T07:10:16;2.27;;;1.97;;
23088;SDS011;11713;48.506;8.966;2023-04-03T07:12:42;3.17;;;2.10;;
23088;SDS011;11713;48.506;8.966;2023-04-03T07:15:08;3.00;;;2.17;;
23088;SDS011;11713;48.506;8.966;2023-04-03T07:17:35;3.33;;;2.13;;
23088;SDS011;11713;48.506;8.966;2023-04-03T07:20:02;3.73;;;2.20;;
23088;SDS011;11713;48.506;8.966;2023-04-03T07:22:30;1.87;;;1.73;;
23088;SDS011;11713;48.506;8.966;2023-04-03T07:24:56;2.40;;;1.97;;
23088;SDS011;11713;48.506;8.966;2023-04-03T07:27:22;2.90;;;2.13;;
23088;SDS011;11713;48.506;8.966;2023-04-03T07:29:47;3.27;;;2.03;;
23088;SDS011;11713;48.506;8.966;2023-04-03T07:32:13;2.23;;;1.93;;
23088;SDS011;11713;48.506;8.966;2023-04-03T07:34:40;3.40;;;1.77;;
23088;SDS011;11713;48.506;8.966;2023-04-03T07:37:06;2.30;;;2.10;;
23088;SDS011;11713;48.506;8.966;2023-04-03T07:39:32;3.10;;;1.90;;
23088;SDS011;11713;48.506;8.966;2023-04-03T07:41:58;3.57;;;1.80;;
23088;SDS011;11713;48.506;8.966;2023-04-03T07:44:24;1.90;;;1.70;;
23088;SDS011;11713;48.506;8.966;2023-04-03T07:46:51;2.37;;;1.70;;
23088;SDS011;11713;48.506;8.966;2023-04-03T07:49:17;1.93;;;1.73;;
23088;SDS011;11713;48.506;8.966;2023-04-03T07:51:43;2.00;;;1.50;;
23088;SDS011;11713;48.506;8.966;2023-04-03T07:54:10;2.47;;;1.80;;
23088;SDS011;11713;48.506;8.966;2023-04-03T07:56:36;3.20;;;2.20;;
23088;SDS011;11713;48.506;8.966;2023-04-03T07:59:02;1.87;;;1.70;;
23088;SDS011;11713;48.506;8.966;2023-04-03T08:01:28;2.03;;;1.83;;
23088;SDS011;11713;48.506;8.966;2023-04-03T08:03:57;2.33;;;1.80;;
23088;SDS011;11713;48.506;8.966;2023-04-03T08:06:23;2.00;;;1.80;;
23088;SDS011;11713;48.506;8.966;2023-04-03T08:08:49;2.37;;;1.87;;
23088;SDS011;11713;48.506;8.966;2023-04-03T08:11:14;2.30;;;1.77;;
23088;SDS011;11713;48.506;8.966;2023-04-03T08:13:40;3.47;;;1.97;;
23088;SDS011;11713;48.506;8.966;2023-04-03T08:16:12;2.30;;;1.80;;
23088;SDS011;11713;48.506;8.966;2023-04-03T08:18:46;2.03;;;1.50;;
23088;SDS011;11713;48.506;8.966;2023-04-03T08:21:14;2.30;;;1.97;;
23088;SDS011;11713;48.506;8.966;2023-04-03T08:23:44;2.10;;;1.80;;
23088;SDS011;11713;48.506;8.966;2023-04-03T08:26:14;2.93;;;1.73;;
23088;SDS011;11713;48.506;8.966;2023-04-03T08:28:41;2.57;;;2.03;;
23088;SDS011;11713;48.506;8.966;2023-04-03T08:31:13;3.00;;;2.00;;
23088;SDS011;11713;48.506;8.966;2023-04-03T08:33:41;3.90;;;2.13;;
23088;SDS011;11713;48.506;8.966;2023-04-03T08:36:14;5.13;;;2.27;;
23088;SDS011;11713;48.506;8.966;2023-04-03T08:38:47;2.77;;;2.03;;
23088;SDS011;11713;48.506;8.966;2023-04-03T08:49:45;3.43;;;2.00;;
23088;SDS011;11713;48.506;8.966;2023-04-03T08:53:01;2.57;;;1.90;;
23088;SDS011;11713;48.506;8.966;2023-04-03T08:55:33;2.80;;;1.90;;
23088;SDS011;11713;48.506;8.966;2023-04-03T09:00:59;2.37;;;1.73;;
23088;SDS011;11713;48.506;8.966;2023-04-03T09:03:33;2.00;;;1.60;;
23088;SDS011;11713;48.506;8.966;2023-04-03T09:06:07;2.80;;;1.70;;
23088;SDS011;11713;48.506;8.966;2023-04-03T09:13:57;4.13;;;2.00;;
23088;SDS011;11713;48.506;8.966;2023-04-03T09:19:34;3.83;;;1.90;;
23088;SDS011;11713;48.506;8.966;2023-04-03T09:24:45;2.37;;;2.17;;
23088;SDS011;11713;48.506;8.966;2023-04-03T09:27:15;3.07;;;2.10;;
23088;SDS011;11713;48.506;8.966;2023-04-03T09:29:42;1.90;;;1.80;;
23088;SDS011;11713;48.506;8.966;2023-04-03T09:34:54;2.20;;;1.60;;
23088;SDS011;11713;48.506;8.966;2023-04-03T09:37:39;4.10;;;2.03;;
23088;SDS011;11713;48.506;8.966;2023-04-03T09:40:29;2.27;;;1.77;;
23088;SDS011;11713;48.506;8.966;2023-04-03T09:43:01;2.87;;;1.90;;
23088;SDS011;11713;48.506;8.966;2023-04-03T09:45:44;2.93;;;1.70;;
23088;SDS011;11713;48.506;8.966;2023-04-03T09:50:41;1.70;;;1.60;;
23088;SDS011;11713;48.506;8.966;2023-04-03T09:55:55;2.60;;;1.70;;
23088;SDS011;11713;48.506;8.966;2023-04-03T09:58:26;2.00;;;1.70;;
23088;SDS011;11713;48.506;8.966;2023-04-03T10:00:59;2.53;;;2.00;;
23088;SDS011;11713;48.506;8.966;2023-04-03T10:03:27;2.67;;;2.00;;
23088;SDS011;11713;48.506;8.966;2023-04-03T10:05:59;2.57;;;1.93;;
23088;SDS011;11713;48.506;8.966;2023-04-03T10:08:28;3.47;;;2.10;;
23088;SDS011;11713;48.506;8.966;2023-04-03T10:11:05;2.93;;;2.00;;
23088;SDS011;11713;48.506;8.966;2023-04-03T10:13:35;2.90;;;1.70;;
23088;SDS011;11713;48.506;8.966;2023-04-03T10:16:15;2.07;;;1.57;;
23088;SDS011;11713;48.506;8.966;2023-04-03T10:26:56;2.70;;;1.97;;
23088;SDS011;11713;48.506;8.966;2023-04-03T10:32:12;2.90;;;1.90;;
23088;SDS011;11713;48.506;8.966;2023-04-03T10:34:48;2.97;;;1.60;;
23088;SDS011;11713;48.506;8.966;2023-04-03T10:37:27;2.53;;;1.70;;
23088;SDS011;11713;48.506;8.966;2023-04-03T10:40:04;2.67;;;1.70;;
23088;SDS011;11713;48.506;8.966;2023-04-03T10:42:50;3.10;;;2.10;;
23088;SDS011;11713;48.506;8.966;2023-04-03T10:53:51;2.53;;;1.70;;
23088;SDS011;11713;48.506;8.966;2023-04-03T10:59:32;4.10;;;1.90;;
23088;SDS011;11713;48.506;8.966;2023-04-03T11:04:50;4.50;;;1.90;;
23088;SDS011;11713;48.506;8.966;2023-04-03T11:07:24;2.50;;;1.73;;
23088;SDS011;11713;48.506;8.966;2023-04-03T11:09:55;2.27;;;1.70;;
23088;SDS011;11713;48.506;8.966;2023-04-03T11:12:31;2.50;;;1.63;;
23088;SDS011;11713;48.506;8.966;2023-04-03T11:15:15;2.10;;;1.83;;
23088;SDS011;11713;48.506;8.966;2023-04-03T11:18:26;3.70;;;1.97;;
23088;SDS011;11713;48.506;8.966;2023-04-03T11:20:36;3.87;;;2.20;;
23088;SDS011;11713;48.506;8.966;2023-04-03T11:25:54;3.67;;;1.90;;
23088;SDS011;11713;48.506;8.966;2023-04-03T11:28:27;3.67;;;1.60;;
23088;SDS011;11713;48.506;8.966;2023-04-03T11:31:01;2.57;;;1.87;;
23088;SDS011;11713;48.506;8.966;2023-04-03T11:36:26;1.87;;;1.60;;
23088;SDS011;11713;48.506;8.966;2023-04-03T11:38:58;2.57;;;1.80;;
23088;SDS011;11713;48.506;8.966;2023-04-03T11:41:29;1.60;;;1.50;;
23088;SDS011;11713;48.506;8.966;2023-04-03T11:44:01;2.90;;;1.60;;
23088;SDS011;11713;48.506;8.966;2023-04-03T12:13:37;1.97;;;1.63;;
23088;SDS011;11713;48.506;8.966;2023-04-03T12:22:04;2.37;;;1.80;;
23088;SDS011;11713;48.506;8.966;2023-04-03T12:24:25;2.77;;;1.77;;
23088;SDS011;11713;48.506;8.966;2023-04-03T12:32:01;2.17;;;1.67;;
23088;SDS011;11713;48.506;8.966;2023-04-03T12:37:38;1.93;;;1.60;;
23088;SDS011;11713;48.506;8.966;2023-04-03T12:40:24;3.10;;;1.77;;
23088;SDS011;11713;48.506;8.966;2023-04-03T12:45:51;3.47;;;1.70;;
23088;SDS011;11713;48.506;8.966;2023-04-03T12:48:46;2.43;;;1.90;;
23088;SDS011;11713;48.506;8.966;2023-04-03T12:51:13;2.23;;;1.57;;
23088;SDS011;11713;48.506;8.966;2023-04-03T12:53:51;2.97;;;1.50;;
23088;SDS011;11713;48.506;8.966;2023-04-03T12:56:25;4.67;;;1.83;;
23088;SDS011;11713;48.506;8.966;2023-04-03T12:58:53;3.57;;;2.10;;
23088;SDS011;11713;48.506;8.966;2023-04-03T13:01:21;2.90;;;1.90;;
23088;SDS011;11713;48.506;8.966;2023-04-03T13:03:52;3.70;;;2.20;;
23088;SDS011;11713;48.506;8.966;2023-04-03T13:06:23;3.80;;;2.00;;
23088;SDS011;11713;48.506;8.966;2023-04-03T13:09:42;3.27;;;1.93;;
23088;SDS011;11713;48.506;8.966;2023-04-03T13:12:12;4.63;;;1.50;;
23088;SDS011;11713;48.506;8.966;2023-04-03T13:14:40;2.67;;;1.70;;
23088;SDS011;11713;48.506;8.966;2023-04-03T13:17:20;3.87;;;1.83;;
23088;SDS011;11713;48.506;8.966;2023-04-03T13:19:47;2.43;;;1.50;;
23088;SDS011;11713;48.506;8.966;2023-04-03T13:25:09;3.57;;;1.93;;
23088;SDS011;11713;48.506;8.966;2023-04-03T13:27:39;3.47;;;1.70;;
23088;SDS011;11713;48.506;8.966;2023-04-03T13:33:00;3.80;;;1.80;;
23088;SDS011;11713;48.506;8.966;2023-04-03T13:35:43;2.83;;;1.60;;
23088;SDS011;11713;48.506;8.966;2023-04-03T13:40:48;1.83;;;1.70;;
23088;SDS011;11713;48.506;8.966;2023-04-03T13:43:24;2.87;;;1.70;;
23088;SDS011;11713;48.506;8.966;2023-04-03T13:46:00;4.00;;;2.00;;
23088;SDS011;11713;48.506;8.966;2023-04-03T13:48:46;2.90;;;1.50;;
23088;SDS011;11713;48.506;8.966;2023-04-03T13:51:22;1.60;;;1.30;;
23088;SDS011;11713;48.506;8.966;2023-04-03T13:53:57;1.90;;;1.60;;
23088;SDS011;11713;48.506;8.966;2023-04-03T13:56:33;3.43;;;1.70;;
23088;SDS011;11713;48.506;8.966;2023-04-03T13:59:05;2.00;;;1.60;;
23088;SDS011;11713;48.506;8.966;2023-04-03T14:01:42;4.10;;;2.00;;
23088;SDS011;11713;48.506;8.966;2023-04-03T14:04:26;6.63;;;1.90;;
23088;SDS011;11713;48.506;8.966;2023-04-03T14:06:55;2.77;;;1.80;;
23088;SDS011;11713;48.506;8.966;2023-04-03T14:09:21;5.27;;;2.00;;
23088;SDS011;11713;48.506;8.966;2023-04-03T14:11:49;2.87;;;1.70;;
23088;SDS011;11713;48.506;8.966;2023-04-03T14:14:20;8.43;;;3.57;;
23088;SDS011;11713;48.506;8.966;2023-04-03T14:16:51;4.57;;;2.77;;
23088;SDS011;11713;48.506;8.966;2023-04-03T14:19:21;3.00;;;1.60;;
23088;SDS011;11713;48.506;8.966;2023-04-03T14:21:52;2.93;;;1.83;;
23088;SDS011;11713;48.506;8.966;2023-04-03T14:24:20;3.97;;;1.80;;
23088;SDS011;11713;48.506;8.966;2023-04-03T14:26:47;2.20;;;1.60;;
23088;SDS011;11713;48.506;8.966;2023-04-03T14:29:15;2.70;;;1.80;;
23088;SDS011;11713;48.506;8.966;2023-04-03T14:31:44;2.23;;;1.70;;
23088;SDS011;11713;48.506;8.966;2023-04-03T14:34:13;2.60;;;1.80;;
23088;SDS011;11713;48.506;8.966;2023-04-03T14:36:43;2.30;;;1.80;;
23088;SDS011;11713;48.506;8.966;2023-04-03T14:39:11;2.13;;;1.70;;
23088;SDS011;11713;48.506;8.966;2023-04-03T14:41:43;2.37;;;1.70;;
23088;SDS011;11713;48.506;8.966;2023-04-03T14:44:10;1.63;;;1.53;;
23088;SDS011;11713;48.506;8.966;2023-04-03T14:46:36;2.47;;;1.73;;
23088;SDS011;11713;48.506;8.966;2023-04-03T14:49:28;2.20;;;1.80;;
23088;SDS011;11713;48.506;8.966;2023-04-03T14:51:55;3.00;;;1.80;;
23088;SDS011;11713;48.506;8.966;2023-04-03T14:54:23;2.43;;;1.63;;
23088;SDS011;11713;48.506;8.966;2023-04-03T14:56:55;4.30;;;1.60;;
23088;SDS011;11713;48.506;8.966;2023-04-03T14:59:23;3.13;;;1.70;;
23088;SDS011;11713;48.506;8.966;2023-04-03T15:01:50;2.90;;;1.60;;
23088;SDS011;11713;48.506;8.966;2023-04-03T15:04:16;2.13;;;1.60;;
23088;SDS011;11713;48.506;8.966;2023-04-03T15:06:46;1.73;;;1.60;;
23088;SDS011;11713;48.506;8.966;2023-04-03T15:09:23;4.00;;;3.60;;
23088;SDS011;11713;48.506;8.966;2023-04-03T15:11:52;3.63;;;2.03;;
23088;SDS011;11713;48.506;8.966;2023-04-03T15:14:19;3.60;;;1.90;;
23088;SDS011;11713;48.506;8.966;2023-04-03T15:16:46;3.07;;;2.37;;
23088;SDS011;11713;48.506;8.966;2023-04-03T15:19:13;3.23;;;1.83;;
23088;SDS011;11713;48.506;8.966;2023-04-03T15:21:40;1.90;;;1.70;;
23088;SDS011;11713;48.506;8.966;2023-04-03T15:24:06;7.57;;;5.53;;
23088;SDS011;11713;48.506;8.966;2023-04-03T15:26:33;3.37;;;2.93;;
23088;SDS011;11713;48.506;8.966;2023-04-03T15:29:01;4.53;;;2.00;;
23088;SDS011;11713;48.506;8.966;2023-04-03T15:31:28;2.77;;;1.63;;
23088;SDS011;11713;48.506;8.966;2023-04-03T15:33:53;2.60;;;2.20;;
23088;SDS011;11713;48.506;8.966;2023-04-03T15:36:21;3.57;;;2.33;;
23088;SDS011;11713;48.506;8.966;2023-04-03T15:38:48;4.33;;;2.33;;
23088;SDS011;11713;48.506;8.966;2023-04-03T15:41:14;3.33;;;1.83;;
23088;SDS011;11713;48.506;8.966;2023-04-03T15:43:41;4.73;;;2.50;;
23088;SDS011;11713;48.506;8.966;2023-04-03T15:46:07;4.40;;;2.00;;
23088;SDS011;11713;48.506;8.966;2023-04-03T15:48:34;5.13;;;2.37;;
23088;SDS011;11713;48.506;8.966;2023-04-03T15:51:01;4.40;;;2.57;;
23088;SDS011;11713;48.506;8.966;2023-04-03T15:53:28;4.23;;;1.90;;
23088;SDS011;11713;48.506;8.966;2023-04-03T15:55:54;3.03;;;2.13;;
23088;SDS011;11713;48.506;8.966;2023-04-03T15:58:20;3.13;;;2.07;;
23088;SDS011;11713;48.506;8.966;2023-04-03T16:00:46;3.70;;;1.57;;
23088;SDS011;11713;48.506;8.966;2023-04-03T16:03:15;3.63;;;2.03;;
23088;SDS011;11713;48.506;8.966;2023-04-03T16:05:43;3.87;;;2.00;;
23088;SDS011;11713;48.506;8.966;2023-04-03T16:08:11;3.37;;;1.87;;
23088;SDS011;11713;48.506;8.966;2023-04-03T16:10:37;2.93;;;1.93;;
23088;SDS011;11713;48.506;8.966;2023-04-03T16:13:05;2.83;;;2.00;;
23088;SDS011;11713;48.506;8.966;2023-04-03T16:15:32;3.47;;;2.10;;
23088;SDS011;11713;48.506;8.966;2023-04-03T16:18:00;3.37;;;3.07;;
23088;SDS011;11713;48.506;8.966;2023-04-03T16:20:27;4.17;;;2.00;;
23088;SDS011;11713;48.506;8.966;2023-04-03T16:22:53;3.77;;;2.07;;
23088;SDS011;11713;48.506;8.966;2023-04-03T16:25:21;3.60;;;2.10;;
23088;SDS011;11713;48.506;8.966;2023-04-03T16:27:46;2.80;;;2.50;;
23088;SDS011;11713;48.506;8.966;2023-04-03T16:30:12;3.37;;;2.13;;
23088;SDS011;11713;48.506;8.966;2023-04-03T16:32:39;2.50;;;1.90;;
23088;SDS011;11713;48.506;8.966;2023-04-03T16:35:05;6.73;;;2.00;;
23088;SDS011;11713;48.506;8.966;2023-04-03T16:37:31;2.33;;;1.90;;
23088;SDS011;11713;48.506;8.966;2023-04-03T16:40:06;4.40;;;2.10;;
23088;SDS011;11713;48.506;8.966;2023-04-03T16:42:33;2.33;;;1.70;;
23088;SDS011;11713;48.506;8.966;2023-04-03T16:44:59;3.93;;;2.20;;
23088;SDS011;11713;48.506;8.966;2023-04-03T16:47:28;3.80;;;2.30;;
23088;SDS011;11713;48.506;8.966;2023-04-03T16:49:55;3.03;;;2.30;;
23088;SDS011;11713;48.506;8.966;2023-04-03T16:52:20;2.80;;;2.10;;
23088;SDS011;11713;48.506;8.966;2023-04-03T16:54:46;3.97;;;2.40;;
23088;SDS011;11713;48.506;8.966;2023-04-03T16:57:12;3.30;;;2.40;;
23088;SDS011;11713;48.506;8.966;2023-04-03T16:59:38;3.00;;;2.20;;
23088;SDS011;11713;48.506;8.966;2023-04-03T17:02:03;2.50;;;2.00;;
23088;SDS011;11713;48.506;8.966;2023-04-03T17:04:29;3.33;;;2.23;;
23088;SDS011;11713;48.506;8.966;2023-04-03T17:06:55;3.80;;;2.30;;
23088;SDS011;11713;48.506;8.966;2023-04-03T17:09:22;5.03;;;3.50;;
23088;SDS011;11713;48.506;8.966;2023-04-03T17:11:48;5.83;;;3.20;;
23088;SDS011;11713;48.506;8.966;2023-04-03T17:14:14;4.40;;;3.50;;
23088;SDS011;11713;48.506;8.966;2023-04-03T17:16:39;3.17;;;2.70;;
23088;SDS011;11713;48.506;8.966;2023-04-03T17:19:05;3.03;;;2.63;;